Time;durP1;ratioP1;P1;durP2;ratioP2;P2;SDS_P1;SDS_P2;PMS_P1;PMS_P2;Temp;Humidity;BMP_temperature;BMP_pressure;BME280_temperature;BME280_humidity;BME280_pressure;Samples;Min_cycle;Max_cycle;Signal;HPM_P1;HPM_P2
2021/07/10 00:02:19;;;;;;;;;6.75;6.75;;;;;;;;5008628;28;8833;-85
2021/07/10 00:04:46;;;;;;;;;6.50;6.50;;;;;;;;5005911;28;9001;-86
2021/07/10 00:07:14;;;;;;;;;7.50;6.75;;;;;;;;5012988;28;8913;-86
2021/07/10 00:09:41;;;;;;;;;9.50;7.25;;;;;;;;5004851;28;8874;-86
2021/07/10 00:12:09;;;;;;;;;6.25;6.25;;;;;;;;5004736;28;8874;-86
2021/07/10 00:14:36;;;;;;;;;7.25;6.00;;;;;;;;5005621;28;8879;-87
2021/07/10 00:17:05;;;;;;;;;7.25;7.25;;;;;;;;4993223;28;8841;-83
2021/07/10 00:19:33;;;;;;;;;7.50;7.50;;;;;;;;5009158;28;8859;-88
2021/07/10 00:22:00;;;;;;;;;6.75;6.75;;;;;;;;5010417;28;8987;-87
2021/07/10 00:24:30;;;;;;;;;7.25;6.25;;;;;;;;5003969;28;8974;-87
2021/07/10 00:26:58;;;;;;;;;6.75;6.75;;;;;;;;5006756;28;8874;-85
2021/07/10 00:29:25;;;;;;;;;6.75;6.75;;;;;;;;5010334;28;8875;-88
2021/07/10 00:31:52;;;;;;;;;6.25;6.25;;;;;;;;5011264;28;8858;-88
2021/07/10 00:34:21;;;;;;;;;8.50;8.50;;;;;;;;5010597;28;9601;-86
2021/07/10 00:36:48;;;;;;;;;6.00;6.00;;;;;;;;4992562;28;8863;-87
2021/07/10 00:39:16;;;;;;;;;6.25;6.25;;;;;;;;5004486;28;8886;-84
2021/07/10 00:41:43;;;;;;;;;8.75;7.00;;;;;;;;5000994;28;8893;-87
2021/07/10 00:44:10;;;;;;;;;6.25;6.25;;;;;;;;4987430;28;9698;-88
2021/07/10 00:46:38;;;;;;;;;8.00;8.00;;;;;;;;5010255;28;8891;-89
2021/07/10 00:49:05;;;;;;;;;8.50;7.00;;;;;;;;5004322;28;8875;-82
2021/07/10 00:51:34;;;;;;;;;6.25;6.25;;;;;;;;5008221;28;8900;-89
2021/07/10 00:54:02;;;;;;;;;7.25;7.25;;;;;;;;5018814;28;8974;-89
2021/07/10 00:56:29;;;;;;;;;4.00;4.00;;;;;;;;5012054;28;8878;-90
2021/07/10 00:58:56;;;;;;;;;7.75;7.75;;;;;;;;5007693;28;8860;-89
2021/07/10 01:01:24;;;;;;;;;7.00;7.00;;;;;;;;5010059;28;8827;-90
2021/07/10 01:03:51;;;;;;;;;6.00;6.00;;;;;;;;5007372;28;8882;-91
2021/07/10 01:06:19;;;;;;;;;7.00;7.00;;;;;;;;5011999;28;8900;-91
2021/07/10 01:08:48;;;;;;;;;9.00;7.50;;;;;;;;5016371;28;8870;-89
2021/07/10 01:11:16;;;;;;;;;7.75;7.75;;;;;;;;5023756;28;9004;-87
2021/07/10 01:13:44;;;;;;;;;6.00;6.00;;;;;;;;5011666;28;8843;-89
2021/07/10 01:16:11;;;;;;;;;9.00;7.00;;;;;;;;4990729;28;9019;-84
2021/07/10 01:18:38;;;;;;;;;5.75;5.50;;;;;;;;5015224;28;8869;-83
2021/07/10 01:21:07;;;;;;;;;7.75;7.00;;;;;;;;5008893;28;8899;-82
2021/07/10 01:23:34;;;;;;;;;7.75;7.75;;;;;;;;5012438;28;8864;-85
2021/07/10 01:26:01;;;;;;;;;8.00;8.00;;;;;;;;5011568;28;8857;-85
2021/07/10 01:28:29;;;;;;;;;7.50;7.00;;;;;;;;5010936;28;8864;-83
2021/07/10 01:30:56;;;;;;;;;7.00;5.75;;;;;;;;5006825;28;8812;-84
2021/07/10 01:33:24;;;;;;;;;6.50;6.50;;;;;;;;5012583;28;8883;-85
2021/07/10 01:35:51;;;;;;;;;5.50;5.50;;;;;;;;5025916;28;8875;-84
2021/07/10 01:38:20;;;;;;;;;8.25;8.25;;;;;;;;5018144;28;8884;-84
2021/07/10 01:40:47;;;;;;;;;7.75;7.75;;;;;;;;5008593;28;8889;-84
2021/07/10 01:43:14;;;;;;;;;5.75;5.75;;;;;;;;5007807;28;8963;-84
2021/07/10 01:45:42;;;;;;;;;7.25;7.25;;;;;;;;5007538;28;8867;-84
2021/07/10 01:48:12;;;;;;;;;7.33;6.00;;;;;;;;4998285;28;8864;-85
2021/07/10 01:50:40;;;;;;;;;6.50;6.50;;;;;;;;5006097;28;8890;-84
2021/07/10 01:53:08;;;;;;;;;6.50;6.50;;;;;;;;5010677;28;8883;-83
2021/07/10 01:55:37;;;;;;;;;10.00;8.25;;;;;;;;5006466;28;8982;-81
2021/07/10 01:58:04;;;;;;;;;8.75;7.75;;;;;;;;5014576;28;8859;-84
2021/07/10 02:00:34;;;;;;;;;5.50;5.50;;;;;;;;5005899;28;8815;-87
2021/07/10 02:03:02;;;;;;;;;7.75;7.00;;;;;;;;5008564;28;8867;-86
2021/07/10 02:05:31;;;;;;;;;6.25;6.25;;;;;;;;5019524;28;8860;-87
2021/07/10 02:07:59;;;;;;;;;8.00;6.00;;;;;;;;5006447;28;8886;-85
2021/07/10 02:10:29;;;;;;;;;5.00;5.00;;;;;;;;5007460;28;8905;-84
2021/07/10 02:13:00;;;;;;;;;6.00;6.00;;;;;;;;5007310;28;8862;-86
2021/07/10 02:15:27;;;;;;;;;8.00;7.00;;;;;;;;5008862;28;9658;-87
2021/07/10 02:17:55;;;;;;;;;11.50;8.75;;;;;;;;5011301;28;8880;-86
2021/07/10 02:20:25;;;;;;;;;6.00;6.00;;;;;;;;5006135;28;8893;-85
2021/07/10 02:22:52;;;;;;;;;6.00;6.00;;;;;;;;5009659;28;8882;-86
2021/07/10 02:25:21;;;;;;;;;5.50;5.50;;;;;;;;5000329;28;8947;-85
2021/07/10 02:27:49;;;;;;;;;8.00;6.00;;;;;;;;5013239;28;8897;-85
2021/07/10 02:30:21;;;;;;;;;6.00;6.00;;;;;;;;5005871;28;8874;-82
2021/07/10 02:32:49;;;;;;;;;5.75;5.75;;;;;;;;5012434;28;8910;-84
2021/07/10 02:35:17;;;;;;;;;5.25;5.25;;;;;;;;4995122;28;8869;-80
2021/07/10 02:37:46;;;;;;;;;6.50;6.00;;;;;;;;5018689;28;9014;-83
2021/07/10 02:40:14;;;;;;;;;7.00;6.25;;;;;;;;5019408;28;8878;-81
2021/07/10 02:42:42;;;;;;;;;7.75;7.75;;;;;;;;5005400;28;8858;-84
2021/07/10 02:45:11;;;;;;;;;7.00;7.00;;;;;;;;5017030;28;8885;-84
2021/07/10 02:47:40;;;;;;;;;7.00;7.00;;;;;;;;5010785;28;8883;-82
2021/07/10 02:50:09;;;;;;;;;10.00;8.00;;;;;;;;5006009;28;8981;-84
2021/07/10 02:52:37;;;;;;;;;7.25;7.25;;;;;;;;5010280;28;8856;-85
2021/07/10 02:55:05;;;;;;;;;6.50;6.00;;;;;;;;5010363;28;8859;-85
2021/07/10 02:57:32;;;;;;;;;6.75;5.75;;;;;;;;5009608;28;8877;-84
2021/07/10 03:00:00;;;;;;;;;6.25;6.25;;;;;;;;5005306;28;8987;-81
2021/07/10 03:02:27;;;;;;;;;8.50;8.50;;;;;;;;5010835;28;8828;-83
2021/07/10 03:04:56;;;;;;;;;7.50;6.25;;;;;;;;5009428;28;10417;-86
2021/07/10 03:07:24;;;;;;;;;6.75;6.75;;;;;;;;5009148;28;8981;-81
2021/07/10 03:09:51;;;;;;;;;12.00;10.50;;;;;;;;5005621;28;8872;-82
2021/07/10 03:12:18;;;;;;;;;10.00;10.00;;;;;;;;5009007;28;8916;-84
2021/07/10 03:14:45;;;;;;;;;12.25;10.25;;;;;;;;5009856;28;8855;-83
2021/07/10 03:17:12;;;;;;;;;7.75;7.75;;;;;;;;5009600;28;9607;-85
2021/07/10 03:19:40;;;;;;;;;7.00;7.00;;;;;;;;5011387;28;8975;-82
2021/07/10 03:22:08;;;;;;;;;11.25;9.75;;;;;;;;5011340;28;8874;-82
2021/07/10 03:24:35;;;;;;;;;10.25;10.25;;;;;;;;5010990;28;8880;-80
2021/07/10 03:27:03;;;;;;;;;7.75;7.75;;;;;;;;5007022;28;8866;-84
2021/07/10 03:29:30;;;;;;;;;9.00;8.75;;;;;;;;5005169;28;8872;-83
2021/07/10 03:31:57;;;;;;;;;9.50;9.50;;;;;;;;5004456;28;8803;-85
2021/07/10 03:34:25;;;;;;;;;8.00;6.25;;;;;;;;5005731;28;8865;-83
2021/07/10 03:36:52;;;;;;;;;11.75;8.25;;;;;;;;5006256;28;8972;-85
2021/07/10 03:39:21;;;;;;;;;13.75;11.75;;;;;;;;5004838;28;9073;-84
2021/07/10 03:41:49;;;;;;;;;9.00;9.00;;;;;;;;5005895;28;9563;-86
2021/07/10 03:44:16;;;;;;;;;13.00;13.00;;;;;;;;5004581;28;8998;-83
2021/07/10 03:46:45;;;;;;;;;10.50;10.50;;;;;;;;5005279;28;8971;-86
2021/07/10 03:49:13;;;;;;;;;10.25;9.00;;;;;;;;5006009;28;9002;-84
2021/07/10 03:51:40;;;;;;;;;10.00;10.00;;;;;;;;5005165;28;8890;-84
2021/07/10 03:54:07;;;;;;;;;10.00;10.00;;;;;;;;5005189;28;8844;-83
2021/07/10 03:56:36;;;;;;;;;9.00;9.00;;;;;;;;5004037;28;8946;-86
2021/07/10 03:59:03;;;;;;;;;10.00;10.00;;;;;;;;5004443;28;8946;-85
2021/07/10 04:01:32;;;;;;;;;7.75;7.75;;;;;;;;5002872;28;8812;-82
2021/07/10 04:04:00;;;;;;;;;8.50;8.50;;;;;;;;5005780;28;8904;-85
2021/07/10 04:06:28;;;;;;;;;10.50;8.25;;;;;;;;4992302;28;8955;-82
2021/07/10 04:08:55;;;;;;;;;9.25;9.25;;;;;;;;5003862;28;9674;-81
2021/07/10 04:11:23;;;;;;;;;11.00;11.00;;;;;;;;4995318;28;8872;-80
2021/07/10 04:13:52;;;;;;;;;9.25;9.25;;;;;;;;5007519;28;8930;-82
2021/07/10 04:16:19;;;;;;;;;8.25;8.25;;;;;;;;5001334;28;8906;-82
2021/07/10 04:18:47;;;;;;;;;10.25;10.25;;;;;;;;5003340;28;8884;-85
2021/07/10 04:21:14;;;;;;;;;12.00;12.00;;;;;;;;5002793;28;8857;-83
2021/07/10 04:23:42;;;;;;;;;11.75;10.00;;;;;;;;5003644;28;8852;-82
2021/07/10 04:26:09;;;;;;;;;10.75;10.50;;;;;;;;4986867;28;8876;-81
2021/07/10 04:28:36;;;;;;;;;11.50;9.75;;;;;;;;5019827;28;9454;-82
2021/07/10 04:31:05;;;;;;;;;13.25;12.50;;;;;;;;5003042;28;8991;-81
2021/07/10 04:33:32;;;;;;;;;9.00;9.00;;;;;;;;5022481;28;8885;-80
2021/07/10 04:35:59;;;;;;;;;10.67;9.00;;;;;;;;5022728;28;9842;-81
2021/07/10 04:38:27;;;;;;;;;10.25;10.25;;;;;;;;5023864;28;8884;-81
2021/07/10 04:40:54;;;;;;;;;8.75;6.50;;;;;;;;5022712;28;8865;-83
2021/07/10 04:43:21;;;;;;;;;10.75;10.75;;;;;;;;5024120;28;8870;-85
2021/07/10 04:45:48;;;;;;;;;12.50;12.50;;;;;;;;5023849;28;8859;-83
2021/07/10 04:48:17;;;;;;;;;9.50;9.50;;;;;;;;5023699;28;8889;-82
2021/07/10 04:50:44;;;;;;;;;9.00;9.00;;;;;;;;5024709;28;8864;-81
2021/07/10 04:53:12;;;;;;;;;9.50;9.25;;;;;;;;5022818;28;8847;-83
2021/07/10 04:55:39;;;;;;;;;13.25;11.25;;;;;;;;5023565;28;8860;-83
2021/07/10 04:58:06;;;;;;;;;10.00;10.00;;;;;;;;5023412;28;8959;-84
2021/07/10 05:00:34;;;;;;;;;10.50;9.75;;;;;;;;5023578;28;8835;-83
2021/07/10 05:03:01;;;;;;;;;14.00;11.00;;;;;;;;5023471;28;8846;-83
2021/07/10 05:05:30;;;;;;;;;10.50;10.50;;;;;;;;5023592;28;8896;-84
2021/07/10 05:08:35;;;;;;;;;15.00;13.25;;;;;;;;5024411;28;8868;-83
2021/07/10 05:11:03;;;;;;;;;11.50;11.00;;;;;;;;5011860;28;9713;-83
2021/07/10 05:13:30;;;;;;;;;12.25;12.25;;;;;;;;5023692;28;8958;-81
2021/07/10 05:15:57;;;;;;;;;10.67;10.67;;;;;;;;5021538;28;8870;-82
2021/07/10 05:18:24;;;;;;;;;11.25;11.25;;;;;;;;5022859;28;9022;-79
2021/07/10 05:20:53;;;;;;;;;14.00;11.50;;;;;;;;5023436;28;8853;-82
2021/07/10 05:26:10;;;;;;;;;11.25;9.75;;;;;;;;4943844;29;9133;-88
2021/07/10 05:28:38;;;;;;;;;11.50;11.50;;;;;;;;4977505;28;9001;-84
2021/07/10 05:31:05;;;;;;;;;13.00;13.00;;;;;;;;5002807;28;8827;-83
2021/07/10 05:33:32;;;;;;;;;16.25;14.75;;;;;;;;5007322;28;8879;-82
2021/07/10 05:36:01;;;;;;;;;17.25;10.50;;;;;;;;5005282;28;9009;-84
2021/07/10 05:38:29;;;;;;;;;12.50;12.50;;;;;;;;5005496;28;8851;-85
2021/07/10 05:40:56;;;;;;;;;10.75;10.75;;;;;;;;5006555;28;8990;-84
2021/07/10 05:43:24;;;;;;;;;13.50;11.00;;;;;;;;5006725;28;8884;-83
2021/07/10 05:45:52;;;;;;;;;12.75;12.75;;;;;;;;5000629;28;8949;-83
2021/07/10 05:48:19;;;;;;;;;12.25;12.25;;;;;;;;5002390;28;8882;-84
2021/07/10 05:50:47;;;;;;;;;11.50;11.00;;;;;;;;5007125;28;8883;-87
2021/07/10 05:53:15;;;;;;;;;14.75;12.00;;;;;;;;5004528;28;8911;-84
2021/07/10 05:55:43;;;;;;;;;13.25;13.25;;;;;;;;4996005;28;8891;-86
2021/07/10 05:58:11;;;;;;;;;14.75;13.75;;;;;;;;5004983;28;8868;-87
2021/07/10 06:00:39;;;;;;;;;16.00;14.00;;;;;;;;5006427;28;8862;-83
2021/07/10 06:03:07;;;;;;;;;8.75;7.00;;;;;;;;4987489;28;8985;-85
2021/07/10 06:05:34;;;;;;;;;11.75;11.75;;;;;;;;5006790;28;8878;-86
2021/07/10 06:08:01;;;;;;;;;12.75;12.00;;;;;;;;5004643;28;8867;-84
2021/07/10 06:10:30;;;;;;;;;12.25;12.25;;;;;;;;5006554;28;8897;-85
2021/07/10 06:12:57;;;;;;;;;12.00;12.00;;;;;;;;5006404;28;8851;-85
2021/07/10 06:15:24;;;;;;;;;10.00;10.00;;;;;;;;5005324;28;8895;-83
2021/07/10 06:17:52;;;;;;;;;10.50;10.50;;;;;;;;5005697;28;8866;-90
2021/07/10 06:20:22;;;;;;;;;12.75;11.00;;;;;;;;5007063;28;8858;-89
2021/07/10 06:22:50;;;;;;;;;18.25;16.25;;;;;;;;5008837;28;8870;-83
2021/07/10 06:25:18;;;;;;;;;11.00;11.00;;;;;;;;5005593;28;8962;-85
2021/07/10 06:27:49;;;;;;;;;12.75;12.75;;;;;;;;5010129;28;8887;-83
2021/07/10 06:30:17;;;;;;;;;11.00;11.00;;;;;;;;5006642;28;8864;-80
2021/07/10 06:32:44;;;;;;;;;11.75;11.75;;;;;;;;5004180;28;8868;-86
2021/07/10 06:35:12;;;;;;;;;16.50;11.75;;;;;;;;5006382;28;8972;-85
2021/07/10 06:37:40;;;;;;;;;17.25;13.75;;;;;;;;5003319;28;8891;-81
2021/07/10 06:40:10;;;;;;;;;10.75;10.75;;;;;;;;5002323;28;8874;-96
2021/07/10 06:42:37;;;;;;;;;10.50;10.50;;;;;;;;5008135;28;8857;-90
2021/07/10 06:45:08;;;;;;;;;12.75;9.50;;;;;;;;4990378;28;8882;-86
2021/07/10 06:47:35;;;;;;;;;18.00;13.25;;;;;;;;5005743;28;8860;-84
2021/07/10 06:50:03;;;;;;;;;16.75;11.00;;;;;;;;5002748;28;8870;-90
2021/07/10 06:52:31;;;;;;;;;13.25;13.25;;;;;;;;5003599;28;8863;-89
2021/07/10 06:54:58;;;;;;;;;12.50;12.50;;;;;;;;5000789;28;8868;-88
2021/07/10 06:57:26;;;;;;;;;12.50;11.25;;;;;;;;5004492;28;8876;-88
2021/07/10 06:59:53;;;;;;;;;11.50;11.50;;;;;;;;5003950;28;8934;-82
2021/07/10 07:02:22;;;;;;;;;11.75;11.75;;;;;;;;5005019;28;8836;-90
2021/07/10 07:04:49;;;;;;;;;14.75;14.75;;;;;;;;5006655;28;8870;-92
2021/07/10 07:07:16;;;;;;;;;12.25;12.25;;;;;;;;4989015;28;8876;-93
2021/07/10 07:09:43;;;;;;;;;13.50;13.50;;;;;;;;5003507;28;8868;-82
2021/07/10 07:12:11;;;;;;;;;15.00;15.00;;;;;;;;5003133;28;8985;-91
2021/07/10 07:14:39;;;;;;;;;16.75;16.75;;;;;;;;5000921;28;8966;-80
2021/07/10 07:17:07;;;;;;;;;15.00;13.25;;;;;;;;5000037;28;8880;-81
2021/07/10 07:19:36;;;;;;;;;16.75;15.00;;;;;;;;5003737;28;8877;-82
2021/07/10 07:22:04;;;;;;;;;14.00;14.00;;;;;;;;5002302;28;8895;-88
2021/07/10 07:24:31;;;;;;;;;17.00;15.75;;;;;;;;5004947;28;8864;-78
2021/07/10 07:26:58;;;;;;;;;12.25;12.25;;;;;;;;5002660;28;8888;-86
2021/07/10 07:29:26;;;;;;;;;12.50;12.50;;;;;;;;5001337;28;9644;-76
2021/07/10 07:31:53;;;;;;;;;11.00;11.00;;;;;;;;5002454;28;8900;-74
2021/07/10 07:34:21;;;;;;;;;14.50;12.25;;;;;;;;5004351;28;8900;-76
2021/07/10 07:36:49;;;;;;;;;12.00;10.75;;;;;;;;5005404;28;8880;-76
2021/07/10 07:39:17;;;;;;;;;14.00;12.75;;;;;;;;5004258;28;8894;-76
2021/07/10 07:41:44;;;;;;;;;10.75;9.75;;;;;;;;5001378;28;8879;-83
2021/07/10 07:44:12;;;;;;;;;15.00;11.75;;;;;;;;5000578;28;8871;-77
2021/07/10 07:46:39;;;;;;;;;11.50;11.50;;;;;;;;5004695;28;8911;-82
2021/07/10 07:49:06;;;;;;;;;12.00;9.50;;;;;;;;5005870;28;8858;-81
2021/07/10 07:51:34;;;;;;;;;9.75;8.50;;;;;;;;5004320;28;8911;-83
2021/07/10 07:54:02;;;;;;;;;10.00;10.00;;;;;;;;5007362;28;8892;-81
2021/07/10 07:56:30;;;;;;;;;10.00;9.00;;;;;;;;5002753;28;8905;-85
2021/07/10 07:58:57;;;;;;;;;13.75;13.75;;;;;;;;5005291;28;8896;-84
2021/07/10 08:01:24;;;;;;;;;10.00;10.00;;;;;;;;5003325;28;8827;-80
2021/07/10 08:03:52;;;;;;;;;12.50;12.50;;;;;;;;5004190;28;8876;-84
2021/07/10 08:06:19;;;;;;;;;14.50;12.00;;;;;;;;5004310;28;8860;-95
2021/07/10 08:08:46;;;;;;;;;12.50;12.50;;;;;;;;5003546;28;8870;-83
2021/07/10 08:11:15;;;;;;;;;10.20;10.20;;;;;;;;5002916;28;8878;-82
2021/07/10 08:13:44;;;;;;;;;8.80;8.80;;;;;;;;5003789;28;8937;-95
2021/07/10 08:16:12;;;;;;;;;11.00;11.00;;;;;;;;4999352;28;8894;-90
2021/07/10 08:18:39;;;;;;;;;13.50;13.50;;;;;;;;5001557;28;8944;-91
2021/07/10 08:21:07;;;;;;;;;10.40;10.40;;;;;;;;4997860;28;8912;-87
2021/07/10 08:23:35;;;;;;;;;12.40;10.60;;;;;;;;4996572;28;8885;-94
2021/07/10 08:26:03;;;;;;;;;12.50;12.00;;;;;;;;4995004;28;8878;-94
2021/07/10 08:28:32;;;;;;;;;14.00;12.25;;;;;;;;5014598;28;8860;-91
2021/07/10 08:30:59;;;;;;;;;11.60;11.60;;;;;;;;5020396;28;8831;-89
2021/07/10 08:33:27;;;;;;;;;14.00;12.00;;;;;;;;5021702;28;8879;-91
2021/07/10 08:35:54;;;;;;;;;11.20;11.20;;;;;;;;5012017;28;8860;-87
2021/07/10 08:38:22;;;;;;;;;12.60;12.60;;;;;;;;5017817;28;8877;-91
2021/07/10 08:40:51;;;;;;;;;12.20;11.00;;;;;;;;5009091;28;8870;-91
2021/07/10 08:43:19;;;;;;;;;14.60;14.40;;;;;;;;5014002;28;8861;-89
2021/07/10 08:45:50;;;;;;;;;12.80;12.80;;;;;;;;5015302;28;8857;-91
2021/07/10 08:48:18;;;;;;;;;13.20;11.60;;;;;;;;5018698;28;8946;-88
2021/07/10 08:50:45;;;;;;;;;13.00;13.00;;;;;;;;5006120;28;8860;-82
2021/07/10 08:53:13;;;;;;;;;11.40;9.80;;;;;;;;5020835;28;8881;-86
2021/07/10 08:55:40;;;;;;;;;10.00;10.00;;;;;;;;5023643;28;8880;-83
2021/07/10 08:58:08;;;;;;;;;13.40;13.40;;;;;;;;5022456;28;8885;-85
2021/07/10 09:00:38;;;;;;;;;15.00;13.60;;;;;;;;5022116;28;9496;-82
2021/07/10 09:03:08;;;;;;;;;12.40;12.20;;;;;;;;5020081;28;8867;-84
2021/07/10 09:05:36;;;;;;;;;13.20;12.00;;;;;;;;5022473;28;8902;-79
2021/07/10 09:08:19;;;;;;;;;11.20;9.40;;;;;;;;5026011;28;9674;-82
2021/07/10 09:10:58;;;;;;;;;11.40;9.80;;;;;;;;5019746;28;8922;-81
2021/07/10 09:13:34;;;;;;;;;11.20;9.40;;;;;;;;5023254;28;8903;-80
2021/07/10 09:16:05;;;;;;;;;15.20;12.20;;;;;;;;5026022;28;8999;-79
2021/07/10 09:18:39;;;;;;;;;11.00;9.20;;;;;;;;5007984;28;8938;-82
2021/07/10 09:21:06;;;;;;;;;9.20;7.20;;;;;;;;5020420;28;9649;-79
2021/07/10 09:23:38;;;;;;;;;6.00;6.00;;;;;;;;5025690;28;9020;-78
2021/07/10 09:26:27;;;;;;;;;8.20;6.40;;;;;;;;5026841;28;8868;-92
2021/07/10 09:29:00;;;;;;;;;6.60;6.60;;;;;;;;4992254;28;8940;-81
2021/07/10 09:31:29;;;;;;;;;5.00;5.00;;;;;;;;5025569;28;8777;-83
2021/07/10 09:34:00;;;;;;;;;7.00;7.00;;;;;;;;5009840;28;9433;-79
2021/07/10 09:36:27;;;;;;;;;8.00;8.00;;;;;;;;5035633;28;8957;-83
2021/07/10 09:38:54;;;;;;;;;7.60;7.60;;;;;;;;5030937;28;8880;-79
2021/07/10 09:41:28;;;;;;;;;7.00;7.00;;;;;;;;5025148;28;8884;-81
2021/07/10 09:44:05;;;;;;;;;7.40;7.40;;;;;;;;5024628;28;9565;-80
2021/07/10 09:46:33;;;;;;;;;9.20;8.00;;;;;;;;5024691;28;8881;-79
2021/07/10 09:49:35;;;;;;;;;6.00;4.40;;;;;;;;5023372;28;8873;-79
2021/07/10 09:52:13;;;;;;;;;7.00;7.00;;;;;;;;5024745;28;9000;-79
2021/07/10 09:54:43;;;;;;;;;5.20;5.20;;;;;;;;5020657;28;8849;-82
2021/07/10 09:57:15;;;;;;;;;7.40;7.40;;;;;;;;5024084;28;8864;-88
2021/07/10 09:59:45;;;;;;;;;8.60;7.20;;;;;;;;5024205;28;8992;-84
2021/07/10 10:02:20;;;;;;;;;9.40;8.40;;;;;;;;5031183;28;8841;-84
2021/07/10 10:04:48;;;;;;;;;7.40;7.20;;;;;;;;5031326;28;8881;-84
2021/07/10 10:07:17;;;;;;;;;9.40;9.40;;;;;;;;5025142;28;8865;-82
2021/07/10 10:09:46;;;;;;;;;7.60;7.60;;;;;;;;5025389;28;8895;-82
2021/07/10 10:12:14;;;;;;;;;10.00;10.00;;;;;;;;5025394;28;8861;-81
2021/07/10 10:14:47;;;;;;;;;13.20;12.20;;;;;;;;5025786;28;8884;-84
2021/07/10 10:17:15;;;;;;;;;13.40;10.60;;;;;;;;5025738;28;8866;-83
2021/07/10 10:19:43;;;;;;;;;13.00;13.00;;;;;;;;5022649;28;8866;-83
2021/07/10 10:22:14;;;;;;;;;10.20;10.20;;;;;;;;5025498;28;8868;-80
2021/07/10 10:24:43;;;;;;;;;12.00;12.00;;;;;;;;5006426;28;9740;-83
2021/07/10 10:27:11;;;;;;;;;11.75;11.75;;;;;;;;5025853;28;9003;-81
2021/07/10 10:29:39;;;;;;;;;11.60;10.00;;;;;;;;5004395;28;9201;-81
2021/07/10 10:32:08;;;;;;;;;9.20;7.00;;;;;;;;5001752;28;8799;-77
2021/07/10 10:34:36;;;;;;;;;10.20;7.80;;;;;;;;5001247;28;8855;-80
2021/07/10 10:37:04;;;;;;;;;8.20;8.20;;;;;;;;5000992;28;8993;-81
2021/07/10 10:39:35;;;;;;;;;8.00;8.00;;;;;;;;5002706;28;8945;-79
2021/07/10 10:42:05;;;;;;;;;9.20;8.60;;;;;;;;5000565;28;8882;-83
2021/07/10 10:44:38;;;;;;;;;5.40;4.00;;;;;;;;4987502;28;8870;-79
2021/07/10 10:47:08;;;;;;;;;8.60;8.20;;;;;;;;5001755;28;8885;-80
2021/07/10 10:49:45;;;;;;;;;7.00;7.00;;;;;;;;5002423;28;8878;-78
2021/07/10 10:52:39;;;;;;;;;6.60;6.60;;;;;;;;5005260;28;8868;-84
2021/07/10 10:55:14;;;;;;;;;7.60;7.20;;;;;;;;4980392;28;8882;-79
2021/07/10 10:57:44;;;;;;;;;7.20;7.20;;;;;;;;5000910;28;8870;-79
2021/07/10 11:00:18;;;;;;;;;8.20;8.20;;;;;;;;5004132;28;8843;-79
2021/07/10 11:03:10;;;;;;;;;7.60;7.60;;;;;;;;5004684;28;8883;-86
2021/07/10 11:05:48;;;;;;;;;9.00;7.00;;;;;;;;5004616;28;8883;-83
2021/07/10 11:08:40;;;;;;;;;7.60;7.60;;;;;;;;5002731;28;9458;-87
2021/07/10 11:11:33;;;;;;;;;8.60;7.00;;;;;;;;5000486;28;9013;-87
2021/07/10 11:14:19;;;;;;;;;5.80;5.80;;;;;;;;5009697;28;8865;-87
2021/07/10 11:17:08;;;;;;;;;5.40;5.40;;;;;;;;5000797;28;8886;-78
2021/07/10 11:19:53;;;;;;;;;3.40;3.40;;;;;;;;5000850;28;8915;-80
2021/07/10 11:22:54;;;;;;;;;3.40;3.40;;;;;;;;4984780;28;8860;-79
2021/07/10 11:28:58;;;;;;;;;5.40;5.40;;;;;;;;4985317;28;10062;-79
2021/07/10 11:31:36;;;;;;;;;6.00;6.00;;;;;;;;5017048;28;8820;-79
2021/07/10 11:34:12;;;;;;;;;5.20;5.20;;;;;;;;5014800;28;8888;-81
2021/07/10 11:37:01;;;;;;;;;4.60;4.60;;;;;;;;5022394;28;9007;-78
2021/07/10 11:39:56;;;;;;;;;4.80;4.00;;;;;;;;5018912;28;9015;-78
2021/07/10 11:42:41;;;;;;;;;5.20;5.20;;;;;;;;4992714;28;8915;-78
2021/07/10 11:45:31;;;;;;;;;5.80;4.40;;;;;;;;5019114;28;8857;-80
2021/07/10 11:48:15;;;;;;;;;4.60;4.60;;;;;;;;5022195;28;8982;-83
2021/07/10 11:50:42;;;;;;;;;6.80;6.80;;;;;;;;5021947;28;8884;-82
2021/07/10 11:53:11;;;;;;;;;6.00;6.00;;;;;;;;5023825;28;8903;-83
2021/07/10 11:55:42;;;;;;;;;7.00;7.00;;;;;;;;5022421;28;8973;-82
2021/07/10 11:58:11;;;;;;;;;5.00;5.00;;;;;;;;5023552;28;8862;-84
2021/07/10 12:00:39;;;;;;;;;6.40;6.40;;;;;;;;5020928;28;8817;-84
2021/07/10 12:03:16;;;;;;;;;7.60;7.60;;;;;;;;5023511;28;8854;-84
2021/07/10 12:05:44;;;;;;;;;6.20;6.00;;;;;;;;5022420;28;8866;-80
2021/07/10 12:08:11;;;;;;;;;5.00;5.00;;;;;;;;5022595;28;8911;-84
2021/07/10 12:10:41;;;;;;;;;5.00;5.00;;;;;;;;5022511;28;8910;-84
2021/07/10 12:13:10;;;;;;;;;4.80;4.80;;;;;;;;5021951;28;8950;-81
2021/07/10 12:15:41;;;;;;;;;6.60;5.00;;;;;;;;5023148;28;8863;-84
2021/07/10 12:18:09;;;;;;;;;6.80;6.80;;;;;;;;5021208;28;9728;-84
2021/07/10 12:20:39;;;;;;;;;6.40;6.40;;;;;;;;5023309;28;9007;-84
2021/07/10 12:23:10;;;;;;;;;5.00;5.00;;;;;;;;5021442;28;8870;-82
2021/07/10 12:25:44;;;;;;;;;4.60;4.60;;;;;;;;5022059;28;8894;-84
2021/07/10 12:28:12;;;;;;;;;6.00;4.80;;;;;;;;5022189;28;8856;-83
2021/07/10 12:30:44;;;;;;;;;7.40;5.80;;;;;;;;5021803;28;8779;-83
2021/07/10 12:33:39;;;;;;;;;4.80;4.80;;;;;;;;5023838;28;8989;-81
2021/07/10 12:36:09;;;;;;;;;4.60;4.60;;;;;;;;5022839;28;8865;-81
2021/07/10 12:38:47;;;;;;;;;8.00;6.00;;;;;;;;5022416;28;8980;-82
2021/07/10 12:41:23;;;;;;;;;5.00;5.00;;;;;;;;5023322;28;8873;-82
2021/07/10 12:43:53;;;;;;;;;5.60;4.20;;;;;;;;5023622;28;8884;-84
2021/07/10 12:46:22;;;;;;;;;5.40;5.40;;;;;;;;5005659;28;8882;-81
2021/07/10 12:48:50;;;;;;;;;4.40;4.40;;;;;;;;5024753;28;8896;-84
2021/07/10 12:51:17;;;;;;;;;5.80;5.80;;;;;;;;5025358;28;8983;-84
2021/07/10 12:53:46;;;;;;;;;6.40;6.00;;;;;;;;5027110;28;8908;-81
2021/07/10 12:56:24;;;;;;;;;6.00;5.00;;;;;;;;5025261;28;8862;-83
2021/07/10 12:58:52;;;;;;;;;5.80;5.80;;;;;;;;5026578;28;8876;-83
2021/07/10 13:01:25;;;;;;;;;5.00;5.00;;;;;;;;5024664;28;8933;-85
2021/07/10 13:03:54;;;;;;;;;6.80;4.80;;;;;;;;5026767;28;8884;-85
2021/07/10 13:06:22;;;;;;;;;6.40;6.40;;;;;;;;5026896;28;8857;-81
2021/07/10 13:08:57;;;;;;;;;4.60;4.60;;;;;;;;5026433;28;8870;-85
2021/07/10 13:11:25;;;;;;;;;5.00;5.00;;;;;;;;5026594;28;8880;-83
2021/07/10 13:13:56;;;;;;;;;5.40;5.40;;;;;;;;5025299;28;8878;-78
2021/07/10 13:16:25;;;;;;;;;6.00;6.00;;;;;;;;5024238;28;8872;-79
2021/07/10 13:18:54;;;;;;;;;3.80;2.40;;;;;;;;5027108;28;8866;-83
2021/07/10 13:21:24;;;;;;;;;4.00;4.00;;;;;;;;5030575;28;8973;-89
2021/07/10 13:23:54;;;;;;;;;3.80;3.80;;;;;;;;5026357;28;8880;-87
2021/07/10 13:26:26;;;;;;;;;4.00;4.00;;;;;;;;5025487;28;9650;-75
2021/07/10 13:29:01;;;;;;;;;4.00;4.00;;;;;;;;5019354;28;8883;-78
2021/07/10 13:31:32;;;;;;;;;4.00;4.00;;;;;;;;5007592;28;8842;-83
2021/07/10 13:34:04;;;;;;;;;4.00;4.00;;;;;;;;5017240;28;8891;-79
2021/07/10 13:36:34;;;;;;;;;3.20;3.20;;;;;;;;5012058;28;8883;-78
2021/07/10 13:39:09;;;;;;;;;3.00;3.00;;;;;;;;5018794;28;8864;-79
2021/07/10 13:41:39;;;;;;;;;3.80;3.80;;;;;;;;5002360;28;8961;-81
2021/07/10 13:44:12;;;;;;;;;3.40;3.40;;;;;;;;5011575;28;8870;-76
2021/07/10 13:46:43;;;;;;;;;3.00;3.00;;;;;;;;5008195;28;8882;-78
2021/07/10 13:49:26;;;;;;;;;6.20;4.80;;;;;;;;5009898;28;8883;-80
2021/07/10 13:51:55;;;;;;;;;0.00;0.00;;;;;;;;4994046;28;8941;-85
2021/07/10 13:54:28;;;;;;;;;2.00;2.00;;;;;;;;5018334;28;9637;-77
2021/07/10 13:57:27;;;;;;;;;2.00;2.00;;;;;;;;5003317;28;8970;-79
2021/07/10 14:00:19;;;;;;;;;3.00;3.00;;;;;;;;4934500;28;9032;-77
2021/07/10 14:02:54;;;;;;;;;3.80;3.80;;;;;;;;4979646;28;8978;-79
2021/07/10 14:05:25;;;;;;;;;3.20;2.20;;;;;;;;5008863;28;8867;-79
2021/07/10 14:07:53;;;;;;;;;4.80;3.20;;;;;;;;5005357;28;8899;-78
2021/07/10 14:10:23;;;;;;;;;2.20;2.20;;;;;;;;4989207;28;8921;-78
2021/07/10 14:12:51;;;;;;;;;2.80;2.60;;;;;;;;5004019;28;8906;-76
2021/07/10 14:15:19;;;;;;;;;3.00;1.60;;;;;;;;4999881;28;8875;-78
2021/07/10 14:17:47;;;;;;;;;4.40;2.00;;;;;;;;5002228;28;8901;-79
2021/07/10 14:20:18;;;;;;;;;2.60;2.00;;;;;;;;4989351;28;8858;-77
2021/07/10 14:22:46;;;;;;;;;2.00;2.00;;;;;;;;5002468;28;8889;-77
2021/07/10 14:25:15;;;;;;;;;2.40;2.40;;;;;;;;5006604;28;8889;-80
2021/07/10 14:27:43;;;;;;;;;2.40;2.40;;;;;;;;5011097;28;8900;-80
2021/07/10 14:30:12;;;;;;;;;1.80;1.80;;;;;;;;5022836;28;9002;-77
2021/07/10 14:32:40;;;;;;;;;2.00;2.00;;;;;;;;5019753;28;8873;-74
2021/07/10 14:35:08;;;;;;;;;3.00;3.00;;;;;;;;5023241;28;8869;-75
2021/07/10 14:37:37;;;;;;;;;1.00;1.00;;;;;;;;5022598;28;8859;-76
2021/07/10 14:40:05;;;;;;;;;0.80;0.80;;;;;;;;5022442;28;8887;-76
2021/07/10 14:42:32;;;;;;;;;2.40;2.40;;;;;;;;5022835;28;8953;-75
2021/07/10 14:44:59;;;;;;;;;2.00;2.00;;;;;;;;5018833;28;8864;-74
2021/07/10 14:47:27;;;;;;;;;2.60;2.60;;;;;;;;5022310;28;9464;-75
2021/07/10 14:49:54;;;;;;;;;3.00;2.00;;;;;;;;5020908;28;8860;-75
2021/07/10 14:52:21;;;;;;;;;2.60;2.60;;;;;;;;5022444;28;9006;-76
2021/07/10 14:54:50;;;;;;;;;1.80;1.80;;;;;;;;5022059;28;8861;-75
2021/07/10 14:57:17;;;;;;;;;2.60;2.60;;;;;;;;5020903;28;8878;-78
2021/07/10 14:59:44;;;;;;;;;1.40;1.40;;;;;;;;5022794;28;8853;-76
2021/07/10 15:02:12;;;;;;;;;2.60;2.60;;;;;;;;5025887;28;8855;-81
2021/07/10 15:04:39;;;;;;;;;3.40;3.00;;;;;;;;5027110;28;8900;-81
2021/07/10 15:07:06;;;;;;;;;4.00;2.80;;;;;;;;5022536;28;9011;-81
2021/07/10 15:09:34;;;;;;;;;1.80;1.80;;;;;;;;5025935;28;8892;-81